Time;durP1;ratioP1;P1;durP2;ratioP2;P2;SDS_P1;SDS_P2;PMS_P1;PMS_P2;Temp;Humidity;BMP_temperature;BMP_pressure;BME280_temperature;BME280_humidity;BME280_pressure;Samples;Min_cycle;Max_cycle;Signal;HPM_P1;HPM_P2
2021/12/09 00:01:24;;;;;;;12.05;5.55;;;2.60;99.90;;;;;;4861813;29;20021;-86
2021/12/09 00:03:53;;;;;;;10.15;5.65;;;2.50;99.90;;;;;;4862339;29;20044;-85
2021/12/09 00:06:24;;;;;;;8.10;5.65;;;2.60;99.90;;;;;;4863592;29;20032;-87
2021/12/09 00:08:50;;;;;;;11.65;6.32;;;2.60;99.90;;;;;;4863593;29;20025;-86
2021/12/09 00:11:16;;;;;;;11.18;6.15;;;2.60;99.90;;;;;;4862631;29;20033;-86
2021/12/09 00:13:44;;;;;;;8.10;5.55;;;2.60;99.90;;;;;;4862856;29;20043;-87
2021/12/09 00:16:09;;;;;;;9.10;5.75;;;2.50;99.90;;;;;;4879544;29;20110;-89
2021/12/09 00:18:35;;;;;;;10.82;5.30;;;2.60;99.90;;;;;;4863613;29;20033;-87
2021/12/09 00:21:01;;;;;;;9.23;5.43;;;2.50;99.90;;;;;;4861791;29;20033;-86
2021/12/09 00:23:27;;;;;;;9.43;4.75;;;2.50;99.90;;;;;;4861629;29;20056;-84
2021/12/09 00:25:52;;;;;;;6.57;4.18;;;2.50;99.90;;;;;;4861642;29;20040;-86
2021/12/09 00:28:18;;;;;;;7.75;5.07;;;2.50;99.90;;;;;;4861769;29;20017;-86
2021/12/09 00:30:44;;;;;;;10.07;6.10;;;2.50;99.90;;;;;;4862028;29;20037;-87
2021/12/09 00:33:10;;;;;;;8.90;5.28;;;2.40;99.90;;;;;;4861582;29;20033;-88
2021/12/09 00:35:47;;;;;;;8.55;5.38;;;2.40;99.90;;;;;;4854603;29;20037;-88
2021/12/09 00:38:23;;;;;;;7.57;4.68;;;2.40;99.90;;;;;;4860731;29;20050;-88
2021/12/09 00:40:54;;;;;;;7.50;4.28;;;2.40;99.90;;;;;;4861989;29;20061;-88
2021/12/09 00:43:20;;;;;;;8.35;5.07;;;2.30;99.90;;;;;;4861583;29;20025;-86
2021/12/09 00:45:46;;;;;;;6.72;4.70;;;2.40;99.90;;;;;;4861026;29;20112;-88
2021/12/09 00:48:12;;;;;;;6.90;4.32;;;2.40;99.90;;;;;;4845967;29;20056;-85
2021/12/09 00:50:38;;;;;;;8.32;4.05;;;2.30;99.90;;;;;;4860400;29;20089;-86
2021/12/09 00:53:03;;;;;;;7.70;3.83;;;2.30;99.90;;;;;;4860215;29;20041;-87
2021/12/09 00:55:29;;;;;;;8.23;4.05;;;2.30;99.90;;;;;;4875182;29;20280;-86
2021/12/09 00:57:55;;;;;;;8.05;3.97;;;2.20;99.90;;;;;;4859690;29;20140;-87
2021/12/09 01:00:23;;;;;;;6.70;3.83;;;2.20;99.90;;;;;;4860247;29;20037;-86
2021/12/09 01:02:49;;;;;;;7.20;4.22;;;2.20;99.90;;;;;;4859387;29;20033;-86
2021/12/09 01:05:15;;;;;;;6.20;4.13;;;2.20;99.90;;;;;;4860635;29;20532;-87
2021/12/09 01:07:41;;;;;;;8.35;4.35;;;2.20;99.90;;;;;;4861232;29;20020;-88
2021/12/09 01:10:09;;;;;;;8.13;4.85;;;2.20;99.90;;;;;;4860214;29;20067;-87
2021/12/09 01:12:35;;;;;;;7.55;4.45;;;2.20;99.90;;;;;;4860760;29;20056;-86
2021/12/09 01:15:03;;;;;;;8.05;4.40;;;2.20;99.90;;;;;;4860888;29;20400;-84
2021/12/09 01:17:28;;;;;;;7.03;3.85;;;2.20;99.90;;;;;;4860440;29;20520;-87
2021/12/09 01:19:54;;;;;;;5.47;3.55;;;2.10;99.90;;;;;;4860077;29;20025;-86
2021/12/09 01:22:26;;;;;;;7.28;3.85;;;2.10;99.90;;;;;;4859876;29;20097;-87
2021/12/09 01:24:51;;;;;;;6.97;3.55;;;2.00;99.90;;;;;;4860353;29;20069;-87
2021/12/09 01:27:17;;;;;;;7.72;4.45;;;2.00;99.90;;;;;;4876536;29;20033;-88
2021/12/09 01:29:51;;;;;;;6.82;3.90;;;2.00;99.90;;;;;;4860739;29;20257;-86
2021/12/09 01:32:24;;;;;;;6.72;3.97;;;2.00;99.90;;;;;;4860579;29;20035;-86
2021/12/09 01:34:49;;;;;;;7.83;3.73;;;1.90;99.90;;;;;;4859937;29;20029;-87
2021/12/09 01:37:15;;;;;;;6.57;4.00;;;1.90;99.90;;;;;;4860490;29;20313;-86
2021/12/09 01:39:41;;;;;;;6.70;4.50;;;1.90;99.90;;;;;;4861871;29;20021;-87
2021/12/09 01:42:07;;;;;;;8.25;4.10;;;2.00;99.90;;;;;;4861865;29;20583;-88
2021/12/09 01:44:33;;;;;;;8.10;4.47;;;1.90;99.90;;;;;;4862771;29;20491;-88
2021/12/09 01:46:59;;;;;;;6.97;4.18;;;1.90;99.90;;;;;;4862980;29;20035;-87
2021/12/09 01:49:25;;;;;;;12.15;5.55;;;1.90;99.90;;;;;;4862542;29;20621;-87
2021/12/09 01:51:51;;;;;;;11.15;5.13;;;1.90;99.90;;;;;;4862472;29;20124;-88
2021/12/09 01:54:17;;;;;;;10.10;5.30;;;1.90;99.90;;;;;;4862241;29;20017;-89
2021/12/09 01:56:43;;;;;;;7.18;4.95;;;1.90;99.90;;;;;;4860965;29;20056;-85
2021/12/09 01:59:09;;;;;;;11.43;4.90;;;1.90;99.90;;;;;;4861483;29;20021;-87
2021/12/09 02:01:36;;;;;;;11.65;5.97;;;2.00;99.90;;;;;;4865541;29;20025;-86
2021/12/09 02:04:06;;;;;;;9.48;4.90;;;2.10;99.90;;;;;;4864792;29;20077;-87
2021/12/09 02:06:33;;;;;;;7.50;4.57;;;2.20;99.90;;;;;;4865102;29;20033;-88
2021/12/09 02:08:59;;;;;;;11.50;5.47;;;2.20;99.90;;;;;;4865340;29;20557;-87
2021/12/09 02:28:16;;;;;;;11.88;5.70;;;2.30;99.90;;;;;;4884783;29;20096;-88
2021/12/09 02:30:42;;;;;;;10.15;5.47;;;2.20;99.90;;;;;;4870551;29;20040;-85
2021/12/09 02:33:08;;;;;;;9.32;5.32;;;2.20;99.90;;;;;;4867747;29;20063;-88
2021/12/09 02:35:36;;;;;;;11.15;5.55;;;2.10;99.90;;;;;;4899521;29;20025;-86
2021/12/09 02:38:03;;;;;;;8.07;5.03;;;2.20;99.90;;;;;;4868543;29;20025;-87
2021/12/09 02:40:30;;;;;;;7.95;4.72;;;2.00;99.90;;;;;;4888572;29;20033;-86
2021/12/09 02:42:55;;;;;;;7.93;4.90;;;2.00;99.90;;;;;;4887964;29;20029;-87
2021/12/09 02:45:21;;;;;;;8.75;4.80;;;2.00;99.90;;;;;;4867536;29;20380;-86
2021/12/09 02:47:47;;;;;;;7.60;4.07;;;1.90;99.90;;;;;;4866094;29;20025;-83
2021/12/09 02:50:12;;;;;;;9.98;4.40;;;1.90;99.90;;;;;;4894468;29;20125;-87
2021/12/09 02:52:38;;;;;;;10.63;4.13;;;1.80;99.90;;;;;;4887010;29;20432;-87
2021/12/09 02:55:04;;;;;;;6.18;3.75;;;1.80;99.90;;;;;;4866287;29;20040;-89
2021/12/09 02:57:30;;;;;;;7.65;4.30;;;1.70;99.90;;;;;;4866982;29;20574;-87
2021/12/09 02:59:56;;;;;;;7.20;4.47;;;1.70;99.90;;;;;;4894021;29;20116;-87
2021/12/09 03:02:22;;;;;;;7.00;4.25;;;1.70;99.90;;;;;;4867780;29;20033;-87
2021/12/09 03:04:58;;;;;;;8.88;4.97;;;1.70;99.90;;;;;;4881975;29;20036;-84
2021/12/09 03:07:30;;;;;;;10.25;4.57;;;1.70;99.90;;;;;;4862403;29;20025;-86
2021/12/09 03:10:00;;;;;;;7.35;4.57;;;1.60;99.90;;;;;;4865934;29;20021;-87
2021/12/09 03:12:33;;;;;;;6.45;3.75;;;1.60;99.90;;;;;;4865834;29;20043;-86
2021/12/09 03:15:01;;;;;;;6.50;3.90;;;1.60;99.90;;;;;;4866035;29;20040;-86
2021/12/09 03:17:27;;;;;;;6.72;3.83;;;1.60;99.90;;;;;;4884060;29;20037;-87
2021/12/09 03:19:53;;;;;;;8.60;3.80;;;1.50;99.90;;;;;;4867579;29;20081;-89
2021/12/09 03:22:19;;;;;;;6.43;3.75;;;1.50;99.90;;;;;;4865252;29;20029;-87
2021/12/09 03:24:45;;;;;;;5.90;3.55;;;1.40;99.90;;;;;;4864211;29;20054;-87
2021/12/09 03:27:11;;;;;;;6.68;3.78;;;1.30;99.90;;;;;;4865246;29;21218;-87
2021/12/09 03:29:38;;;;;;;6.00;3.33;;;1.30;99.90;;;;;;4882195;29;20033;-86
2021/12/09 03:32:08;;;;;;;6.55;3.05;;;1.20;99.90;;;;;;4865259;29;20021;-87
2021/12/09 03:34:35;;;;;;;5.85;3.30;;;1.20;99.90;;;;;;4865647;29;20017;-88
2021/12/09 03:37:24;;;;;;;6.50;3.47;;;1.10;99.90;;;;;;4867245;29;20044;-87
2021/12/09 03:39:51;;;;;;;5.30;3.10;;;1.10;99.90;;;;;;4856589;29;20063;-88
2021/12/09 03:42:20;;;;;;;6.07;3.25;;;1.00;99.90;;;;;;4866220;29;20044;-88
2021/12/09 03:44:48;;;;;;;4.85;3.20;;;1.00;99.90;;;;;;4870922;29;20036;-88
2021/12/09 03:47:17;;;;;;;6.15;2.70;;;1.00;99.90;;;;;;4878266;29;20092;-88
2021/12/09 03:49:43;;;;;;;5.28;2.88;;;0.90;99.90;;;;;;4890725;29;20005;-88
2021/12/09 03:52:13;;;;;;;8.48;3.22;;;0.80;99.90;;;;;;4870171;29;20514;-87
2021/12/09 03:54:40;;;;;;;5.13;3.08;;;0.80;99.90;;;;;;4867278;29;20476;-85
2021/12/09 03:57:07;;;;;;;5.43;3.38;;;0.70;99.90;;;;;;4867092;29;20029;-86
2021/12/09 03:59:34;;;;;;;6.03;3.00;;;0.70;99.90;;;;;;4865600;29;20025;-87
2021/12/09 04:02:00;;;;;;;5.85;3.35;;;0.70;99.90;;;;;;4865701;29;20119;-87
2021/12/09 04:04:26;;;;;;;8.23;3.42;;;0.60;99.90;;;;;;4865831;29;20025;-88
2021/12/09 04:06:52;;;;;;;5.15;3.22;;;0.60;99.90;;;;;;4865616;29;20044;-87
2021/12/09 04:09:21;;;;;;;5.82;3.22;;;0.60;99.90;;;;;;4866535;29;20017;-88
2021/12/09 04:11:48;;;;;;;9.05;3.58;;;0.50;99.90;;;;;;4867499;29;20081;-87
2021/12/09 04:14:13;;;;;;;8.95;4.28;;;0.50;99.90;;;;;;4866306;29;20547;-86
2021/12/09 04:16:39;;;;;;;4.38;2.90;;;0.50;99.90;;;;;;4865787;29;20029;-89
2021/12/09 04:19:07;;;;;;;4.70;3.00;;;0.40;99.90;;;;;;4865380;29;20040;-88
2021/12/09 04:21:34;;;;;;;5.95;3.35;;;0.40;99.90;;;;;;4865989;29;20052;-86
2021/12/09 04:24:07;;;;;;;5.25;3.17;;;0.40;99.90;;;;;;4866383;29;20047;-87
2021/12/09 04:26:36;;;;;;;7.13;3.60;;;0.40;99.90;;;;;;4867097;29;20029;-86
2021/12/09 04:29:04;;;;;;;6.35;3.38;;;0.40;99.90;;;;;;4866758;29;20297;-87
2021/12/09 04:31:30;;;;;;;5.82;3.42;;;0.40;99.90;;;;;;4851755;29;20028;-87
2021/12/09 04:33:55;;;;;;;5.05;3.17;;;0.30;99.90;;;;;;4866454;29;20029;-86
2021/12/09 04:36:21;;;;;;;5.55;3.20;;;0.30;99.90;;;;;;4865654;29;20041;-88
2021/12/09 04:38:48;;;;;;;5.70;3.25;;;0.40;99.90;;;;;;4865245;29;20021;-87
2021/12/09 04:41:15;;;;;;;6.32;3.22;;;0.30;99.90;;;;;;4865781;29;20036;-86
2021/12/09 04:43:42;;;;;;;7.45;3.55;;;0.30;99.90;;;;;;4882864;29;20032;-87
2021/12/09 04:46:09;;;;;;;4.70;3.17;;;0.30;99.90;;;;;;4866194;29;20116;-87
2021/12/09 04:48:35;;;;;;;5.60;3.35;;;0.30;99.90;;;;;;4867156;29;20029;-87
2021/12/09 04:51:01;;;;;;;5.15;3.13;;;0.40;99.90;;;;;;4869945;29;20077;-85
2021/12/09 04:53:27;;;;;;;5.10;2.88;;;0.40;99.90;;;;;;4868740;29;20033;-86
2021/12/09 04:55:53;;;;;;;6.07;3.47;;;0.40;99.90;;;;;;4870712;29;20564;-87
2021/12/09 04:58:19;;;;;;;5.40;3.22;;;0.30;99.90;;;;;;4888850;29;20478;-87
2021/12/09 05:00:47;;;;;;;6.88;3.55;;;0.40;99.90;;;;;;4882924;29;20020;-86
2021/12/09 05:03:13;;;;;;;7.03;3.35;;;0.40;99.90;;;;;;4884711;29;20017;-86
2021/12/09 05:05:50;;;;;;;6.97;3.10;;;0.50;99.90;;;;;;4885588;29;20018;-86
2021/12/09 05:08:20;;;;;;;6.85;2.97;;;0.50;99.90;;;;;;4885232;29;20036;-87
2021/12/09 05:10:59;;;;;;;5.63;3.13;;;0.50;99.90;;;;;;4881699;29;20020;-84
2021/12/09 05:13:28;;;;;;;5.97;3.30;;;0.50;99.90;;;;;;4885753;29;20041;-85
2021/12/09 05:15:54;;;;;;;7.55;3.50;;;0.50;99.90;;;;;;4886321;29;20018;-85
2021/12/09 05:18:20;;;;;;;4.75;2.88;;;0.50;99.90;;;;;;4886369;29;20084;-85
2021/12/09 05:20:47;;;;;;;5.85;3.38;;;0.50;99.90;;;;;;4885825;29;20015;-86
2021/12/09 05:23:13;;;;;;;7.75;3.40;;;0.50;99.90;;;;;;4886806;29;20057;-87
2021/12/09 05:25:39;;;;;;;6.53;2.92;;;0.60;99.90;;;;;;4885632;29;20121;-88
2021/12/09 05:28:07;;;;;;;6.10;3.30;;;0.60;99.90;;;;;;4883288;29;20101;-89
2021/12/09 05:33:25;;;;;;;6.97;3.05;;;0.60;99.90;;;;;;4862112;29;20014;-88
2021/12/09 05:35:51;;;;;;;5.65;3.03;;;0.70;99.90;;;;;;4867223;29;20037;-86
2021/12/09 05:38:17;;;;;;;8.05;3.70;;;0.70;99.90;;;;;;4864448;29;20040;-88
2021/12/09 05:40:42;;;;;;;5.88;3.05;;;0.80;99.90;;;;;;4864937;29;20709;-88
2021/12/09 05:43:08;;;;;;;5.68;3.08;;;0.80;99.90;;;;;;4867098;29;20119;-88
2021/12/09 05:45:34;;;;;;;4.03;2.55;;;0.80;99.90;;;;;;4867219;29;20029;-88
2021/12/09 05:48:00;;;;;;;5.90;2.95;;;0.80;99.90;;;;;;4850924;29;20060;-87
2021/12/09 05:50:26;;;;;;;6.03;2.97;;;0.60;99.90;;;;;;4854130;29;20044;-85
2021/12/09 05:52:52;;;;;;;4.63;2.70;;;0.60;99.90;;;;;;4865312;29;20033;-85
2021/12/09 05:55:17;;;;;;;7.07;3.10;;;0.50;99.90;;;;;;4865205;29;20823;-86
2021/12/09 05:57:43;;;;;;;5.43;2.97;;;0.40;99.90;;;;;;4867168;29;20040;-84
2021/12/09 06:00:10;;;;;;;6.15;3.10;;;0.40;99.90;;;;;;4852338;29;20025;-86
2021/12/09 06:02:35;;;;;;;6.50;2.90;;;0.30;99.90;;;;;;4866936;29;20039;-86
2021/12/09 06:05:03;;;;;;;4.40;2.67;;;0.30;99.90;;;;;;4883967;29;20496;-85
2021/12/09 06:07:28;;;;;;;5.45;2.80;;;0.30;99.90;;;;;;4868273;29;20021;-85
2021/12/09 06:09:55;;;;;;;5.13;3.05;;;0.30;99.90;;;;;;4868379;29;20837;-86
2021/12/09 06:12:21;;;;;;;6.30;2.80;;;0.20;99.90;;;;;;4866822;29;20029;-86
2021/12/09 06:14:47;;;;;;;6.35;3.20;;;0.30;99.90;;;;;;4883690;29;20029;-84
2021/12/09 06:17:13;;;;;;;6.40;3.17;;;0.30;99.90;;;;;;4862838;29;20055;-84
2021/12/09 06:19:38;;;;;;;6.43;2.70;;;0.30;99.90;;;;;;4847175;29;20029;-87
2021/12/09 06:22:04;;;;;;;5.65;3.20;;;0.30;99.90;;;;;;4873125;29;20104;-84
2021/12/09 06:24:30;;;;;;;4.18;2.65;;;0.30;99.90;;;;;;4866283;29;20132;-84
2021/12/09 06:26:56;;;;;;;4.15;2.38;;;0.30;99.90;;;;;;4866361;29;20025;-86
2021/12/09 06:29:21;;;;;;;5.68;2.75;;;0.30;99.90;;;;;;4868448;29;20035;-85
2021/12/09 06:31:47;;;;;;;5.78;2.70;;;0.30;99.90;;;;;;4870060;29;20040;-85
2021/12/09 06:34:12;;;;;;;4.78;2.38;;;0.30;99.90;;;;;;4871636;29;20116;-85
2021/12/09 06:36:40;;;;;;;5.55;2.50;;;0.30;99.90;;;;;;4867661;29;20049;-85
2021/12/09 06:39:06;;;;;;;4.22;2.03;;;0.30;99.90;;;;;;4867719;29;20025;-85
2021/12/09 06:41:34;;;;;;;5.85;2.42;;;0.30;99.90;;;;;;4871060;29;20687;-85
2021/12/09 06:43:59;;;;;;;8.38;3.67;;;0.20;99.90;;;;;;4867318;29;20029;-85
2021/12/09 06:46:25;;;;;;;3.80;2.30;;;0.30;99.90;;;;;;4867782;29;20100;-85
2021/12/09 06:48:51;;;;;;;5.03;2.47;;;0.20;99.90;;;;;;4866717;29;20024;-86
2021/12/09 06:51:17;;;;;;;4.38;2.13;;;0.20;99.90;;;;;;4865413;29;20103;-85
2021/12/09 06:53:43;;;;;;;5.93;2.85;;;0.20;99.90;;;;;;4867387;29;20124;-86
2021/12/09 06:56:09;;;;;;;7.03;2.25;;;0.20;99.90;;;;;;4867133;29;20063;-86
2021/12/09 06:58:35;;;;;;;4.90;2.67;;;0.20;99.90;;;;;;4867768;29;20531;-85
2021/12/09 07:01:01;;;;;;;4.13;2.30;;;0.30;99.90;;;;;;4867506;29;20029;-86
2021/12/09 07:03:28;;;;;;;5.20;2.30;;;0.20;99.90;;;;;;4867172;29;20037;-86
2021/12/09 07:05:54;;;;;;;5.60;2.35;;;0.20;99.90;;;;;;4868136;29;20073;-85
2021/12/09 07:08:21;;;;;;;6.95;2.72;;;0.20;99.90;;;;;;4865963;29;20115;-84
2021/12/09 07:10:48;;;;;;;4.57;2.10;;;0.20;99.90;;;;;;4866222;29;20025;-86
2021/12/09 07:13:14;;;;;;;8.25;2.88;;;0.20;99.90;;;;;;4882980;29;20119;-85
2021/12/09 07:15:40;;;;;;;7.28;2.83;;;0.30;99.90;;;;;;4866532;29;20057;-84
2021/12/09 07:18:06;;;;;;;11.63;4.68;;;0.30;99.90;;;;;;4883627;29;20048;-85
2021/12/09 07:20:33;;;;;;;16.30;7.45;;;0.40;99.90;;;;;;4867458;29;20387;-85
2021/12/09 07:22:59;;;;;;;12.35;6.15;;;0.60;99.90;;;;;;4866079;29;20498;-85
2021/12/09 07:25:28;;;;;;;10.52;5.38;;;0.60;99.90;;;;;;4865239;29;20099;-85
2021/12/09 07:27:53;;;;;;;9.40;5.00;;;0.70;99.90;;;;;;4866688;29;20055;-85
2021/12/09 07:30:22;;;;;;;10.23;5.15;;;0.70;99.90;;;;;;4872900;29;20119;-86
2021/12/09 07:32:48;;;;;;;11.13;5.07;;;0.70;99.90;;;;;;4883654;29;20032;-86
2021/12/09 07:35:15;;;;;;;6.72;3.90;;;0.60;99.90;;;;;;4866766;29;20055;-86
2021/12/09 07:37:43;;;;;;;9.02;3.60;;;0.60;99.90;;;;;;4866402;29;20036;-86
2021/12/09 07:40:12;;;;;;;6.55;3.20;;;0.60;99.90;;;;;;4871413;29;20017;-85
2021/12/09 07:42:39;;;;;;;5.78;3.22;;;0.70;99.90;;;;;;4869252;29;20033;-85
2021/12/09 07:45:07;;;;;;;8.82;3.22;;;0.70;99.90;;;;;;4863701;29;20376;-86
2021/12/09 07:47:33;;;;;;;8.45;3.40;;;0.70;99.90;;;;;;4865152;29;20044;-85
2021/12/09 07:49:59;;;;;;;6.22;3.17;;;0.70;99.90;;;;;;4863720;29;20468;-85
2021/12/09 07:52:25;;;;;;;6.72;3.22;;;0.80;99.90;;;;;;4880887;29;20479;-85
2021/12/09 07:54:51;;;;;;;10.23;4.32;;;0.80;99.90;;;;;;4863479;29;20032;-85
2021/12/09 07:57:16;;;;;;;8.77;3.58;;;0.90;99.90;;;;;;4863936;29;20392;-86
2021/12/09 07:59:42;;;;;;;9.23;3.58;;;0.90;99.90;;;;;;4876893;29;20487;-87
2021/12/09 08:02:09;;;;;;;8.15;4.40;;;1.00;99.90;;;;;;4873405;29;20059;-87
2021/12/09 08:04:35;;;;;;;8.50;3.90;;;1.00;99.90;;;;;;4864704;29;20040;-87
2021/12/09 08:07:01;;;;;;;7.93;4.53;;;1.10;99.90;;;;;;4863805;29;20033;-86
2021/12/09 08:09:27;;;;;;;10.05;4.75;;;1.10;99.90;;;;;;4863316;29;20017;-86
2021/12/09 08:11:53;;;;;;;8.63;3.92;;;1.20;99.90;;;;;;4863454;29;20039;-84
2021/12/09 08:14:20;;;;;;;11.00;5.43;;;1.20;99.90;;;;;;4879939;29;20108;-86
2021/12/09 08:16:56;;;;;;;15.23;6.65;;;1.30;99.90;;;;;;4864062;29;20534;-87
2021/12/09 08:19:22;;;;;;;10.30;4.75;;;1.30;99.90;;;;;;4879826;29;20021;-86
2021/12/09 08:21:48;;;;;;;15.77;6.40;;;1.40;99.90;;;;;;4874729;29;20067;-86
2021/12/09 08:24:13;;;;;;;12.65;5.85;;;1.50;99.90;;;;;;4863608;29;20464;-85
2021/12/09 08:26:39;;;;;;;11.85;5.05;;;1.60;99.90;;;;;;4863042;29;20446;-86
2021/12/09 08:29:05;;;;;;;14.13;5.50;;;1.70;99.90;;;;;;4878498;29;20045;-84
2021/12/09 08:31:34;;;;;;;19.10;5.97;;;1.70;99.90;;;;;;4874883;29;20108;-87
2021/12/09 08:34:01;;;;;;;14.35;5.90;;;1.80;99.90;;;;;;4869126;29;20574;-85
2021/12/09 08:36:27;;;;;;;11.95;5.38;;;1.80;99.90;;;;;;4871213;29;20067;-86
2021/12/09 08:38:53;;;;;;;11.02;5.90;;;1.80;99.90;;;;;;4874574;29;20480;-85
2021/12/09 08:41:19;;;;;;;12.50;5.65;;;1.90;99.90;;;;;;4873205;29;20025;-86
2021/12/09 08:43:48;;;;;;;15.73;6.75;;;2.10;99.90;;;;;;4872785;29;20044;-87
2021/12/09 08:46:15;;;;;;;11.23;6.40;;;2.10;99.90;;;;;;4875723;29;20017;-86
2021/12/09 08:48:41;;;;;;;10.23;6.15;;;2.30;99.90;;;;;;4870807;29;20017;-85
2021/12/09 08:51:07;;;;;;;12.05;6.10;;;2.50;99.90;;;;;;4864354;29;20059;-87
2021/12/09 08:53:34;;;;;;;9.63;5.07;;;2.60;99.90;;;;;;4864708;29;20052;-87
2021/12/09 08:56:00;;;;;;;13.90;6.80;;;2.70;99.90;;;;;;4869188;29;20025;-87
2021/12/09 08:58:28;;;;;;;13.93;6.38;;;2.80;99.90;;;;;;4884678;29;20024;-87
2021/12/09 09:00:57;;;;;;;12.15;5.22;;;2.80;99.90;;;;;;4873598;29;20029;-86
2021/12/09 09:03:23;;;;;;;13.73;5.93;;;2.90;99.90;;;;;;4865994;29;20514;-86
2021/12/09 09:05:49;;;;;;;14.57;6.43;;;2.90;99.90;;;;;;4868709;29;20093;-86
2021/12/09 09:08:14;;;;;;;14.75;6.95;;;2.90;99.90;;;;;;4868017;29;20061;-84
2021/12/09 09:10:42;;;;;;;11.65;6.15;;;3.00;99.90;;;;;;4869500;29;20041;-84
2021/12/09 09:13:07;;;;;;;12.68;6.38;;;3.20;99.90;;;;;;4868938;29;20032;-85
2021/12/09 09:15:36;;;;;;;16.02;7.05;;;3.50;99.90;;;;;;4870529;29;20033;-86
2021/12/09 09:18:02;;;;;;;13.73;7.03;;;3.50;99.90;;;;;;4867910;29;20041;-87
2021/12/09 09:20:31;;;;;;;20.52;7.10;;;3.50;99.90;;;;;;4868033;29;20165;-86
2021/12/09 09:22:57;;;;;;;11.70;5.93;;;3.40;99.90;;;;;;4885682;29;20037;-88
2021/12/09 09:25:29;;;;;;;11.30;6.07;;;3.40;99.90;;;;;;4869860;29;20022;-86
2021/12/09 09:27:58;;;;;;;14.50;6.55;;;3.40;99.90;;;;;;4869838;29;20049;-85
2021/12/09 09:30:33;;;;;;;14.40;6.38;;;3.40;99.90;;;;;;4870765;29;20056;-85
2021/12/09 09:32:59;;;;;;;12.90;5.78;;;3.50;99.90;;;;;;4869806;29;20047;-87
2021/12/09 09:35:25;;;;;;;10.50;5.93;;;3.50;99.90;;;;;;4863658;29;20463;-87
2021/12/09 09:37:50;;;;;;;14.88;6.50;;;3.50;99.90;;;;;;4863728;29;20128;-87
2021/12/09 09:40:27;;;;;;;11.00;6.93;;;3.50;99.90;;;;;;4864462;29;20425;-87
2021/12/09 09:43:00;;;;;;;16.48;7.38;;;3.80;99.90;;;;;;4871788;29;20025;-87
2021/12/09 09:45:27;;;;;;;13.20;6.68;;;4.10;99.90;;;;;;4871443;29;20071;-87
2021/12/09 09:47:54;;;;;;;10.02;5.75;;;5.10;99.90;;;;;;4852460;29;20028;-87
2021/12/09 09:50:20;;;;;;;12.98;7.60;;;5.90;99.90;;;;;;4852483;29;20065;-87
2021/12/09 09:52:47;;;;;;;10.65;5.55;;;6.80;99.90;;;;;;4864526;29;20484;-86
2021/12/09 09:55:20;;;;;;;11.23;5.72;;;7.30;99.90;;;;;;4864005;29;20032;-87
2021/12/09 09:57:46;;;;;;;11.93;5.65;;;7.30;99.90;;;;;;4863999;29;20100;-87
2021/12/09 10:00:13;;;;;;;10.82;4.90;;;6.70;99.90;;;;;;4871294;29;20550;-86
2021/12/09 10:02:39;;;;;;;10.30;5.40;;;6.40;99.90;;;;;;4863945;29;20033;-86
2021/12/09 10:05:07;;;;;;;8.13;5.28;;;6.50;99.90;;;;;;4863651;29;20028;-86
2021/12/09 10:07:34;;;;;;;11.45;4.93;;;7.00;99.90;;;;;;4864720;29;20361;-86
2021/12/09 10:10:00;;;;;;;9.40;5.03;;;7.20;99.90;;;;;;4882291;29;20096;-87
2021/12/09 10:12:26;;;;;;;10.32;5.68;;;7.10;99.90;;;;;;4873936;29;20025;-86
2021/12/09 10:14:53;;;;;;;10.07;5.03;;;6.70;99.90;;;;;;4873704;29;20050;-84
2021/12/09 10:17:22;;;;;;;8.30;4.72;;;6.20;99.90;;;;;;4865963;29;20107;-87
2021/12/09 10:19:48;;;;;;;11.75;5.05;;;5.90;99.90;;;;;;4865064;29;20025;-86
2021/12/09 10:22:22;;;;;;;11.98;5.75;;;5.60;99.90;;;;;;4864964;29;20124;-87
2021/12/09 10:24:49;;;;;;;;;;;5.50;99.90;;;;;;4864789;29;20025;-86
2021/12/09 10:27:31;;;;;;;11.73;5.97;;;5.40;99.90;;;;;;4864672;29;19967;-87
2021/12/09 10:30:13;;;;;;;10.18;5.85;;;5.40;99.90;;;;;;4854787;29;20037;-87
2021/12/09 10:32:40;;;;;;;10.75;6.13;;;5.20;99.90;;;;;;4873528;29;20025;-86
2021/12/09 10:35:18;;;;;;;12.60;6.70;;;5.10;99.90;;;;;;4870095;29;20033;-86
2021/12/09 10:37:49;;;;;;;14.65;7.15;;;5.00;99.90;;;;;;4875327;29;20041;-84
2021/12/09 10:40:18;;;;;;;11.48;6.00;;;4.90;99.90;;;;;;4888926;29;20086;-86
2021/12/09 10:42:53;;;;;;;9.98;5.85;;;4.80;99.90;;;;;;4876191;29;20029;-86
2021/12/09 10:45:21;;;;;;;12.43;5.82;;;4.80;99.90;;;;;;4855188;29;20039;-86
2021/12/09 10:47:54;;;;;;;10.88;6.07;;;4.70;99.90;;;;;;4866566;29;20025;-85
2021/12/09 10:50:34;;;;;;;11.68;6.32;;;4.70;99.90;;;;;;4865847;29;20075;-86
2021/12/09 10:55:51;;;;;;;14.02;6.82;;;4.60;99.90;;;;;;4884285;29;20039;-87
2021/12/09 10:58:20;;;;;;;18.13;8.73;;;4.60;99.90;;;;;;4869036;29;20060;-83
2021/12/09 11:00:53;;;;;;;14.00;7.68;;;4.50;99.90;;;;;;4878269;29;20104;-86
2021/12/09 11:03:23;;;;;;;17.92;8.20;;;4.50;99.90;;;;;;4865865;29;20025;-85
2021/12/09 11:06:00;;;;;;;12.73;7.22;;;4.50;99.90;;;;;;4862780;29;20032;-85
2021/12/09 11:08:33;;;;;;;17.08;7.82;;;4.50;99.90;;;;;;4864675;29;20056;-85
2021/12/09 11:11:03;;;;;;;13.52;8.00;;;4.40;99.90;;;;;;4869854;29;20085;-85
2021/12/09 11:13:55;;;;;;;15.02;8.70;;;4.40;99.90;;;;;;4865262;29;20395;-85
2021/12/09 11:16:30;;;;;;;15.88;8.43;;;4.40;99.90;;;;;;4878015;29;20511;-86
2021/12/09 11:19:25;;;;;;;18.67;9.55;;;4.40;99.90;;;;;;4881280;29;20029;-85
2021/12/09 11:21:58;;;;;;;14.52;9.32;;;4.50;99.90;;;;;;4866586;29;20030;-86
2021/12/09 11:24:31;;;;;;;16.40;9.73;;;4.50;99.90;;;;;;4863216;29;20045;-86
2021/12/09 11:27:22;;;;;;;19.60;9.10;;;4.50;99.90;;;;;;4864983;29;20056;-87
2021/12/09 11:29:52;;;;;;;18.60;9.50;;;4.50;99.90;;;;;;4863942;29;20480;-86
2021/12/09 11:32:57;;;;;;;13.57;9.20;;;4.50;99.90;;;;;;4864862;29;20029;-85
2021/12/09 11:35:24;;;;;;;17.95;10.00;;;4.60;99.90;;;;;;4878753;29;20033;-85
2021/12/09 11:38:03;;;;;;;17.05;10.48;;;4.60;99.90;;;;;;4867547;29;20033;-86
2021/12/09 11:40:51;;;;;;;16.58;10.95;;;4.60;99.90;;;;;;4865415;29;20089;-86
2021/12/09 11:43:26;;;;;;;20.13;11.20;;;4.70;99.90;;;;;;4865634;29;20036;-86
2021/12/09 11:45:54;;;;;;;16.23;10.35;;;4.70;99.90;;;;;;4864944;29;20033;-86
2021/12/09 11:48:21;;;;;;;16.88;10.73;;;4.70;99.90;;;;;;4865716;29;20032;-87
2021/12/09 11:50:50;;;;;;;18.88;11.43;;;4.70;99.90;;;;;;4868414;29;20479;-85
2021/12/09 11:53:19;;;;;;;17.05;11.07;;;4.80;99.90;;;;;;4864871;29;20025;-86
2021/12/09 11:55:56;;;;;;;18.52;11.98;;;4.80;99.90;;;;;;4869272;29;20487;-87
2021/12/09 11:58:27;;;;;;;19.88;11.55;;;4.80;99.90;;;;;;4875486;29;20076;-86
2021/12/09 12:13:00;;;;;;;19.33;11.35;;;5.10;99.90;;;;;;4879305;29;20033;-86
2021/12/09 12:15:51;;;;;;;18.02;12.25;;;5.10;99.90;;;;;;4862156;29;20369;-87
2021/12/09 12:18:51;;;;;;;16.98;12.77;;;5.20;99.90;;;;;;4863335;29;20124;-87
2021/12/09 12:24:18;;;;;;;17.92;12.35;;;5.20;99.90;;;;;;4870992;29;20396;-87
2021/12/09 12:40:45;;;;;;;20.25;11.77;;;5.10;99.90;;;;;;4881920;29;20585;-85
2021/12/09 12:43:39;;;;;;;15.38;12.77;;;5.10;99.90;;;;;;4863843;29;20025;-85
2021/12/09 12:46:34;;;;;;;16.42;10.80;;;5.10;99.90;;;;;;4862669;29;20029;-85
2021/12/09 12:49:15;;;;;;;15.20;12.13;;;5.00;99.90;;;;;;4864856;29;20029;-86
2021/12/09 12:51:52;;;;;;;15.73;12.02;;;5.00;99.90;;;;;;4863140;29;20036;-85
2021/12/09 12:54:38;;;;;;;15.45;11.40;;;5.00;99.90;;;;;;4862492;29;20032;-86
2021/12/09 12:57:16;;;;;;;15.52;11.40;;;4.90;99.90;;;;;;4859050;29;20068;-85
2021/12/09 12:59:45;;;;;;;15.57;11.35;;;5.00;99.90;;;;;;4875116;29;20084;-87
2021/12/09 13:13:42;;;;;;;16.40;12.15;;;5.10;99.90;;;;;;4875476;29;20845;-86
2021/12/09 13:16:20;;;;;;;16.35;11.57;;;5.10;99.90;;;;;;4858199;29;20029;-86
2021/12/09 13:19:36;;;;;;;19.52;11.82;;;5.10;99.90;;;;;;4859087;29;20044;-87
2021/12/09 13:22:10;;;;;;;21.45;11.88;;;5.10;99.90;;;;;;4845588;29;20064;-85
2021/12/09 13:24:56;;;;;;;15.07;11.20;;;5.10;99.90;;;;;;4860991;29;20042;-85
2021/12/09 13:36:27;;;;;;;15.63;11.77;;;5.10;99.90;;;;;;4877720;29;20037;-86
2021/12/09 13:47:20;;;;;;;15.13;12.48;;;5.10;99.90;;;;;;4875040;29;20571;-85
2021/12/09 13:49:55;;;;;;;19.42;13.27;;;5.10;99.90;;;;;;4858168;29;20033;-85
2021/12/09 13:55:27;;;;;;;17.30;13.60;;;5.10;99.90;;;;;;4847847;29;20037;-87
2021/12/09 13:58:01;;;;;;;16.67;13.80;;;5.00;99.90;;;;;;4864222;29;20033;-87
2021/12/09 14:00:26;;;;;;;16.42;11.52;;;5.00;99.90;;;;;;4881498;29;20063;-88
2021/12/09 14:03:05;;;;;;;17.27;13.05;;;5.00;99.90;;;;;;4881880;29;20029;-88
2021/12/09 14:05:44;;;;;;;17.08;12.88;;;5.00;99.90;;;;;;4880953;29;20029;-86
2021/12/09 14:08:12;;;;;;;18.25;14.85;;;5.00;99.90;;;;;;4881216;29;20502;-84
2021/12/09 14:10:42;;;;;;;17.67;13.02;;;5.00;99.90;;;;;;4871905;29;20093;-85
2021/12/09 14:13:15;;;;;;;20.95;14.52;;;5.00;99.90;;;;;;4849803;29;20268;-85
2021/12/09 14:15:57;;;;;;;19.13;14.60;;;5.00;99.90;;;;;;4862968;29;20496;-86
2021/12/09 14:18:30;;;;;;;22.23;14.63;;;5.00;99.90;;;;;;4862236;29;20040;-86
2021/12/09 14:20:56;;;;;;;23.27;15.32;;;5.00;99.90;;;;;;4862300;29;20181;-87
2021/12/09 14:23:22;;;;;;;19.10;13.88;;;5.00;99.90;;;;;;4880947;29;20131;-86